Manitou, Kentucky
Current Conditions -  °F | °C
As of 4:55 PM on Thursday 20 Nov 2014 (Local Time) from K2I0 Reporting Station
Clear Clear  
Wind Chill: 30°   Ceiling: Unl
Heat Index: 35°   Visibility: 10mi
Dew Point: 23°   Wind: 5mph
Humidity: 62%   Direction: 20°NNE
Pressure: 30.24"   Gusts: NA
Location:  37.37°N, 87.58°W
Report Text: K2I0 202255Z AUTO 02004KT 10SM CLR 01/M05 A3024 RMK AO2 T00141052
Loading
Personal Weather Stations






























Interactive Weather Map New forecast layout! Learn more

10-Day Weather Forecast

Advertisements
Track Severe Weather on mobile